Time;durP1;ratioP1;P1;durP2;ratioP2;P2;SDS_P1;SDS_P2;PMS_P1;PMS_P2;Temp;Humidity;BMP_temperature;BMP_pressure;BME280_temperature;BME280_humidity;BME280_pressure;Samples;Min_cycle;Max_cycle;Signal;HPM_P1;HPM_P2
2022/01/14 00:01:52;;;;;;;13.10;6.90;;;5.60;99.90;;;;;;5031363;28;20168;-71
2022/01/14 00:04:18;;;;;;;12.83;7.00;;;5.70;99.90;;;;;;5031483;28;20425;-71
2022/01/14 00:06:44;;;;;;;21.30;10.17;;;5.70;99.90;;;;;;5031438;28;20493;-72
2022/01/14 00:09:11;;;;;;;18.27;9.37;;;5.60;99.90;;;;;;5031511;28;20413;-72
2022/01/14 00:11:41;;;;;;;12.10;6.80;;;5.60;99.90;;;;;;5031354;28;20251;-71
2022/01/14 00:14:10;;;;;;;12.03;6.93;;;5.60;99.90;;;;;;5027250;28;20450;-72
2022/01/14 00:16:36;;;;;;;10.87;6.53;;;5.60;99.90;;;;;;5030956;28;20406;-71
2022/01/14 00:19:02;;;;;;;15.70;8.00;;;5.60;99.90;;;;;;5031263;28;20844;-71
2022/01/14 00:21:29;;;;;;;13.53;7.70;;;5.60;99.90;;;;;;5031391;28;20722;-72
2022/01/14 00:24:06;;;;;;;11.50;7.93;;;5.60;99.90;;;;;;5031285;28;20536;-72
2022/01/14 00:31:42;;;;;;;11.83;7.50;;;5.60;99.90;;;;;;5011605;28;20398;-72
2022/01/14 00:32:24;;;;;;;22.20;7.77;;;5.70;99.90;;;;;;5032207;28;20398;-72
2022/01/14 00:34:49;;;;;;;12.40;7.13;;;5.60;99.90;;;;;;5035033;28;20857;-71
2022/01/14 00:37:16;;;;;;;10.80;7.60;;;5.70;99.90;;;;;;5034719;28;20453;-72
2022/01/14 00:39:43;;;;;;;12.67;8.13;;;5.70;99.90;;;;;;5034888;28;20257;-74
2022/01/14 00:42:10;;;;;;;19.33;8.63;;;5.70;99.90;;;;;;5017215;28;20497;-73
2022/01/14 00:44:35;;;;;;;12.47;6.97;;;5.70;99.90;;;;;;5029875;28;20459;-71
2022/01/14 00:47:02;;;;;;;9.70;6.50;;;5.60;99.90;;;;;;5033821;28;20410;-72
2022/01/14 00:49:28;;;;;;;13.17;9.07;;;5.60;99.90;;;;;;5015132;28;20255;-73
2022/01/14 00:51:54;;;;;;;8.83;7.93;;;5.70;99.90;;;;;;5014871;28;20490;-71
2022/01/14 00:54:19;;;;;;;9.60;5.40;;;5.70;99.90;;;;;;5014924;28;20196;-71
2022/01/14 00:56:48;;;;;;;12.40;6.00;;;5.70;99.90;;;;;;5022688;28;20559;-71
2022/01/14 00:59:16;;;;;;;12.33;5.97;;;5.70;99.90;;;;;;5034648;28;20540;-71
2022/01/14 01:01:53;;;;;;;14.13;6.83;;;5.70;99.90;;;;;;5032403;28;20426;-72
2022/01/14 01:04:29;;;;;;;12.53;7.17;;;5.70;99.90;;;;;;5034681;28;20468;-72
2022/01/14 01:06:55;;;;;;;8.87;7.20;;;5.70;99.90;;;;;;5034670;28;20418;-71
2022/01/14 01:09:23;;;;;;;16.30;8.77;;;5.70;99.90;;;;;;5034416;28;20405;-71
2022/01/14 01:11:53;;;;;;;11.67;6.60;;;5.70;99.90;;;;;;5034443;28;20403;-71
2022/01/14 01:14:25;;;;;;;14.30;8.30;;;5.70;99.90;;;;;;5034174;28;20454;-71
2022/01/14 01:16:50;;;;;;;13.60;6.27;;;5.70;99.90;;;;;;5034196;28;20482;-71
2022/01/14 01:19:16;;;;;;;12.70;7.60;;;5.70;99.90;;;;;;5034316;28;20501;-70
2022/01/14 01:21:41;;;;;;;11.40;6.83;;;5.70;99.90;;;;;;5034044;28;20168;-70
2022/01/14 01:24:09;;;;;;;9.63;6.30;;;5.80;99.90;;;;;;5034224;28;20203;-72
2022/01/14 01:26:38;;;;;;;9.80;5.77;;;5.70;99.90;;;;;;5034313;28;20752;-72
2022/01/14 01:31:41;;;;;;;13.70;8.20;;;5.70;99.90;;;;;;5034008;28;20399;-70
2022/01/14 01:34:18;;;;;;;14.03;7.23;;;5.80;99.90;;;;;;5016001;28;20442;-70
2022/01/14 01:36:47;;;;;;;10.97;7.37;;;5.70;99.90;;;;;;5034017;28;20401;-71
2022/01/14 01:39:18;;;;;;;10.00;6.90;;;5.80;99.90;;;;;;5033823;28;20413;-72
2022/01/14 01:41:46;;;;;;;12.43;7.00;;;5.70;99.90;;;;;;5034086;28;20411;-71
2022/01/14 01:44:14;;;;;;;33.97;10.00;;;5.80;99.90;;;;;;5032776;28;20423;-72
2022/01/14 01:46:42;;;;;;;11.57;6.93;;;5.80;99.90;;;;;;5034560;28;20407;-72
2022/01/14 01:49:09;;;;;;;17.97;9.30;;;5.80;99.90;;;;;;5033889;28;20409;-71
2022/01/14 01:51:36;;;;;;;16.47;7.40;;;5.80;99.90;;;;;;5033812;28;20408;-70
2022/01/14 01:54:02;;;;;;;14.87;9.73;;;5.80;99.90;;;;;;5033481;28;20441;-71
2022/01/14 01:56:28;;;;;;;13.37;7.07;;;5.80;99.90;;;;;;5033633;28;20399;-72
2022/01/14 01:58:56;;;;;;;16.93;9.23;;;5.80;99.90;;;;;;5033377;28;20904;-71
2022/01/14 02:01:22;;;;;;;14.23;7.77;;;5.80;99.90;;;;;;5033356;28;20187;-71
2022/01/14 02:03:48;;;;;;;16.87;9.40;;;5.80;99.90;;;;;;5033130;28;20484;-71
2022/01/14 02:06:15;;;;;;;10.53;8.40;;;5.80;99.90;;;;;;5033402;28;20912;-72
2022/01/14 02:08:41;;;;;;;15.50;6.97;;;5.90;99.90;;;;;;5033307;28;20171;-71
2022/01/14 02:11:06;;;;;;;10.00;5.63;;;5.90;99.90;;;;;;5029792;28;20803;-72
2022/01/14 02:13:32;;;;;;;19.67;8.13;;;5.80;99.90;;;;;;5033131;28;20191;-71
2022/01/14 02:23:46;;;;;;;12.93;7.27;;;5.80;99.90;;;;;;5032993;28;20533;-70
2022/01/14 02:26:15;;;;;;;10.70;7.40;;;5.80;99.90;;;;;;5032944;28;20916;-71
2022/01/14 02:28:42;;;;;;;13.27;6.73;;;5.80;99.90;;;;;;5033111;28;20405;-72
2022/01/14 02:31:07;;;;;;;16.37;8.97;;;5.80;99.90;;;;;;5033025;28;20835;-72
2022/01/14 02:33:33;;;;;;;15.03;8.60;;;5.80;99.90;;;;;;5032785;28;20462;-72
2022/01/14 02:35:59;;;;;;;11.10;7.43;;;5.80;99.90;;;;;;5032928;28;20433;-72
2022/01/14 02:38:25;;;;;;;14.47;7.43;;;5.80;99.90;;;;;;5033015;28;20238;-71
2022/01/14 02:40:50;;;;;;;14.90;7.30;;;5.80;99.90;;;;;;5032766;28;20458;-71
2022/01/14 02:43:17;;;;;;;17.97;8.07;;;5.80;99.90;;;;;;5032691;28;20594;-71
2022/01/14 02:45:48;;;;;;;12.50;8.00;;;5.80;99.90;;;;;;5032692;28;20190;-71
2022/01/14 02:48:15;;;;;;;14.20;8.10;;;5.80;99.90;;;;;;5032666;28;20406;-71
2022/01/14 02:50:55;;;;;;;13.23;6.77;;;5.70;99.90;;;;;;5032673;28;20402;-71
2022/01/14 02:53:42;;;;;;;20.93;9.30;;;5.80;99.90;;;;;;5032845;28;20935;-71
2022/01/14 02:56:11;;;;;;;16.60;10.20;;;5.70;99.90;;;;;;5032645;28;20406;-72
2022/01/14 02:58:38;;;;;;;13.47;10.93;;;5.60;99.90;;;;;;5032604;28;20772;-71
2022/01/14 03:01:24;;;;;;;14.87;9.23;;;5.60;99.90;;;;;;5032822;28;20450;-71
2022/01/14 03:03:54;;;;;;;17.17;9.03;;;5.60;99.90;;;;;;5032704;28;20422;-73
2022/01/14 03:06:20;;;;;;;11.10;7.80;;;5.60;99.90;;;;;;5032765;28;20412;-72
2022/01/14 03:08:45;;;;;;;16.10;10.30;;;5.60;99.90;;;;;;5015085;28;20916;-72
2022/01/14 03:11:16;;;;;;;19.10;9.27;;;5.60;99.90;;;;;;5032549;28;20648;-72
2022/01/14 03:13:42;;;;;;;17.50;8.90;;;5.60;99.90;;;;;;5032572;28;20191;-72
2022/01/14 03:16:08;;;;;;;27.63;9.00;;;5.60;99.90;;;;;;5032470;28;21038;-71
2022/01/14 03:18:41;;;;;;;15.87;9.33;;;5.70;99.90;;;;;;5032603;28;20183;-71
2022/01/14 03:21:12;;;;;;;18.00;9.43;;;5.70;99.90;;;;;;5014613;28;20832;-70
2022/01/14 03:23:48;;;;;;;13.17;8.47;;;5.60;99.90;;;;;;5031666;28;20457;-71
2022/01/14 03:26:19;;;;;;;16.57;9.43;;;5.60;99.90;;;;;;5032067;28;20405;-72
2022/01/14 03:28:46;;;;;;;17.90;10.03;;;5.50;99.90;;;;;;5032167;28;20434;-72
2022/01/14 03:31:12;;;;;;;16.10;9.53;;;5.50;99.90;;;;;;5032068;28;20889;-71
2022/01/14 03:33:38;;;;;;;17.60;7.70;;;5.50;99.90;;;;;;5031907;28;20426;-71
2022/01/14 03:36:05;;;;;;;10.90;7.23;;;5.40;99.90;;;;;;5031851;28;20399;-72
2022/01/14 03:38:31;;;;;;;18.23;8.47;;;5.50;99.90;;;;;;5031850;28;20418;-72
2022/01/14 03:40:57;;;;;;;15.73;8.67;;;5.50;99.90;;;;;;5032255;28;20450;-72
2022/01/14 03:43:22;;;;;;;13.07;7.33;;;5.50;99.90;;;;;;5031551;28;20776;-73
2022/01/14 03:45:51;;;;;;;16.33;9.07;;;5.50;99.90;;;;;;5031816;28;20939;-72
2022/01/14 03:48:17;;;;;;;16.60;8.27;;;5.40;99.90;;;;;;5032226;28;20192;-73
2022/01/14 03:50:43;;;;;;;14.67;9.57;;;5.40;99.90;;;;;;5032409;28;20460;-72
2022/01/14 03:53:11;;;;;;;13.00;8.03;;;5.40;99.90;;;;;;5031652;28;20426;-73
2022/01/14 03:55:38;;;;;;;18.00;10.37;;;5.30;99.90;;;;;;5031667;28;20637;-72
2022/01/14 03:58:04;;;;;;;11.67;5.57;;;5.30;99.90;;;;;;5031919;28;20406;-74
2022/01/14 04:00:30;;;;;;;16.73;8.43;;;5.30;99.90;;;;;;5032095;28;21195;-71
2022/01/14 04:02:56;;;;;;;12.40;6.03;;;5.30;99.90;;;;;;5032248;28;20859;-71
2022/01/14 04:05:21;;;;;;;14.77;7.73;;;5.40;99.90;;;;;;5031926;28;20406;-71
2022/01/14 04:07:47;;;;;;;13.33;8.73;;;5.30;99.90;;;;;;5037850;28;20164;-71
2022/01/14 04:10:13;;;;;;;13.03;8.47;;;5.30;99.90;;;;;;5037172;28;20630;-71
2022/01/14 04:12:47;;;;;;;9.37;5.63;;;5.30;99.90;;;;;;5031376;28;20172;-70
2022/01/14 04:17:59;;;;;;;13.33;5.93;;;5.20;99.90;;;;;;5016473;28;20456;-72
2022/01/14 04:20:25;;;;;;;14.13;8.70;;;5.20;99.90;;;;;;5016784;28;20481;-72
2022/01/14 04:22:51;;;;;;;12.13;7.90;;;5.30;99.90;;;;;;5019666;28;20501;-72
2022/01/14 04:25:17;;;;;;;11.50;6.83;;;5.20;99.90;;;;;;5054002;23;20492;-67
2022/01/14 04:27:43;;;;;;;11.40;7.40;;;5.20;99.90;;;;;;5035231;28;20758;-69
2022/01/14 04:30:09;;;;;;;9.67;4.90;;;5.20;99.90;;;;;;5034750;28;20926;-69
2022/01/14 04:32:35;;;;;;;8.03;4.87;;;5.30;99.90;;;;;;5034790;28;20167;-67
2022/01/14 04:35:00;;;;;;;17.37;8.93;;;5.30;99.90;;;;;;5034670;28;20437;-67
2022/01/14 04:37:26;;;;;;;13.30;7.53;;;5.30;99.90;;;;;;5034830;28;20207;-67
2022/01/14 04:39:51;;;;;;;14.83;8.47;;;5.30;99.90;;;;;;5034769;28;20821;-67
2022/01/14 04:42:17;;;;;;;9.43;6.20;;;5.20;99.90;;;;;;5034538;28;20222;-67
2022/01/14 04:44:42;;;;;;;12.50;7.80;;;5.30;99.90;;;;;;5034591;28;20188;-67
2022/01/14 04:47:29;;;;;;;10.57;6.03;;;5.30;99.90;;;;;;5034583;28;20168;-67
2022/01/14 04:49:55;;;;;;;16.40;8.83;;;5.20;99.90;;;;;;5034753;28;20179;-69
2022/01/14 04:52:20;;;;;;;10.37;6.77;;;5.30;99.90;;;;;;5034270;28;20936;-66
2022/01/14 04:54:46;;;;;;;10.17;6.40;;;5.30;99.90;;;;;;5034339;28;20488;-68
2022/01/14 04:57:12;;;;;;;14.73;7.73;;;5.20;99.90;;;;;;5034227;28;20295;-67
2022/01/14 04:59:37;;;;;;;13.17;5.80;;;5.20;99.90;;;;;;5034382;28;20639;-68
2022/01/14 05:02:03;;;;;;;17.50;8.90;;;5.30;99.90;;;;;;5034358;28;20175;-68
2022/01/14 05:04:29;;;;;;;10.13;7.20;;;5.30;99.90;;;;;;5034344;28;20657;-68
2022/01/14 05:07:00;;;;;;;11.97;8.00;;;5.20;99.90;;;;;;5034277;28;20174;-68
2022/01/14 05:09:32;;;;;;;15.80;7.47;;;5.20;99.90;;;;;;5034259;28;20429;-67
2022/01/14 05:12:05;;;;;;;11.37;6.73;;;5.20;99.90;;;;;;5033958;28;20455;-68
2022/01/14 05:14:31;;;;;;;10.03;7.47;;;5.30;99.90;;;;;;5034243;28;20453;-68
2022/01/14 05:16:56;;;;;;;11.20;6.93;;;5.30;99.90;;;;;;5033929;28;20426;-68
2022/01/14 05:19:22;;;;;;;14.37;9.07;;;5.30;99.90;;;;;;5032762;28;20172;-68
2022/01/14 05:21:47;;;;;;;12.73;7.40;;;5.30;99.90;;;;;;5033865;28;20690;-68
2022/01/14 05:24:13;;;;;;;13.90;10.27;;;5.30;99.90;;;;;;5033694;28;20215;-68
2022/01/14 05:26:38;;;;;;;11.67;9.03;;;5.30;99.90;;;;;;5033755;28;20675;-68
2022/01/14 05:29:04;;;;;;;14.67;8.30;;;5.30;99.90;;;;;;5033817;28;20168;-68
2022/01/14 05:31:42;;;;;;;13.70;6.90;;;5.30;99.90;;;;;;5033878;28;20167;-68
2022/01/14 05:34:08;;;;;;;11.23;7.77;;;5.30;99.90;;;;;;5033728;28;20622;-67
2022/01/14 05:36:33;;;;;;;10.27;7.03;;;5.30;99.90;;;;;;5033759;28;20438;-68
2022/01/14 05:38:59;;;;;;;12.93;8.37;;;5.30;99.90;;;;;;5033573;28;20171;-67
2022/01/14 05:41:24;;;;;;;11.77;6.67;;;5.40;99.90;;;;;;5033535;28;20206;-68
2022/01/14 05:43:49;;;;;;;20.60;9.30;;;5.40;99.90;;;;;;5033422;28;20219;-68
2022/01/14 05:46:15;;;;;;;14.07;7.60;;;5.40;99.90;;;;;;5033489;28;20172;-67
2022/01/14 05:48:40;;;;;;;15.83;8.80;;;5.40;99.90;;;;;;5033518;28;20171;-67
2022/01/14 05:51:06;;;;;;;16.80;8.03;;;5.40;99.90;;;;;;5033485;28;20171;-68
2022/01/14 05:53:31;;;;;;;15.83;9.20;;;5.30;99.90;;;;;;5033263;28;20257;-68
2022/01/14 05:55:57;;;;;;;17.73;8.00;;;5.40;99.90;;;;;;5033398;28;20175;-67
2022/01/14 05:58:22;;;;;;;23.80;7.90;;;5.40;99.90;;;;;;5033186;28;20182;-67
2022/01/14 06:00:48;;;;;;;13.47;8.57;;;5.30;99.90;;;;;;5033463;28;20211;-68
2022/01/14 06:03:13;;;;;;;14.03;9.87;;;5.40;99.90;;;;;;5033225;28;20198;-67
2022/01/14 06:05:38;;;;;;;14.70;7.17;;;5.30;99.90;;;;;;5033198;28;20640;-67
2022/01/14 06:08:05;;;;;;;14.63;8.27;;;5.40;99.90;;;;;;5033843;28;20555;-68
2022/01/14 06:10:31;;;;;;;20.43;9.23;;;5.40;99.90;;;;;;5033180;28;20172;-67
2022/01/14 06:12:56;;;;;;;21.90;8.90;;;5.50;99.90;;;;;;5033133;28;20398;-68
2022/01/14 06:15:22;;;;;;;14.93;7.77;;;5.40;99.90;;;;;;5032809;28;20195;-68
2022/01/14 06:17:47;;;;;;;14.03;9.10;;;5.40;99.90;;;;;;5033188;28;20172;-68
2022/01/14 06:20:13;;;;;;;18.73;9.37;;;5.40;99.90;;;;;;5033392;28;20397;-68
2022/01/14 06:22:38;;;;;;;15.67;8.27;;;5.40;99.90;;;;;;5033608;28;20171;-68
2022/01/14 06:25:05;;;;;;;13.03;8.73;;;5.30;99.90;;;;;;5028994;28;20553;-68
2022/01/14 06:27:32;;;;;;;16.50;9.87;;;5.40;99.90;;;;;;5023699;28;20543;-67
2022/01/14 06:30:02;;;;;;;26.30;10.60;;;5.40;99.90;;;;;;5012812;28;20419;-68
2022/01/14 06:32:28;;;;;;;17.13;10.67;;;5.20;99.90;;;;;;5013087;28;20407;-68
2022/01/14 06:34:53;;;;;;;12.57;9.43;;;5.20;99.90;;;;;;5012712;28;20434;-68
2022/01/14 06:37:19;;;;;;;19.47;9.03;;;5.10;99.90;;;;;;5012746;28;20517;-67
2022/01/14 06:39:44;;;;;;;20.03;10.90;;;5.10;99.90;;;;;;5012779;28;20196;-67
2022/01/14 06:42:10;;;;;;;16.40;8.50;;;5.10;99.90;;;;;;5012926;28;20168;-68
2022/01/14 06:44:35;;;;;;;30.23;12.80;;;5.10;99.90;;;;;;5012546;28;20666;-68
2022/01/14 06:47:01;;;;;;;13.27;8.07;;;5.10;99.90;;;;;;5013054;28;20175;-67
2022/01/14 06:49:27;;;;;;;11.20;8.37;;;5.10;99.90;;;;;;5013036;28;20697;-67
2022/01/14 06:51:53;;;;;;;19.20;9.00;;;5.10;99.90;;;;;;5012709;28;20626;-67
2022/01/14 06:54:19;;;;;;;18.00;11.37;;;5.20;99.90;;;;;;5012278;28;20438;-68
2022/01/14 06:56:44;;;;;;;22.33;10.13;;;5.20;99.90;;;;;;5012588;28;20164;-67
2022/01/14 06:59:10;;;;;;;22.03;10.00;;;5.20;99.90;;;;;;5012421;28;20583;-68
2022/01/14 07:01:35;;;;;;;18.53;8.87;;;5.20;99.90;;;;;;5012273;28;20210;-67
2022/01/14 07:04:01;;;;;;;13.40;8.33;;;5.20;99.90;;;;;;5012305;28;20192;-67
2022/01/14 07:06:26;;;;;;;20.83;8.93;;;5.20;99.90;;;;;;5012152;28;20175;-67
2022/01/14 07:08:52;;;;;;;26.37;10.60;;;5.20;99.90;;;;;;5012372;28;20670;-67
2022/01/14 07:11:18;;;;;;;20.27;10.80;;;5.20;99.90;;;;;;5011997;28;20259;-68
2022/01/14 07:13:43;;;;;;;20.90;9.03;;;5.30;99.90;;;;;;5012201;28;20281;-69
2022/01/14 07:16:09;;;;;;;25.07;10.67;;;5.30;99.90;;;;;;5011947;28;20173;-67
2022/01/14 07:18:34;;;;;;;21.43;12.67;;;5.30;99.90;;;;;;5012177;28;20226;-67
2022/01/14 07:21:00;;;;;;;19.97;8.80;;;5.30;99.90;;;;;;5011991;28;20192;-68
2022/01/14 07:23:25;;;;;;;20.03;9.30;;;5.30;99.90;;;;;;5012107;28;20311;-69
2022/01/14 07:25:51;;;;;;;17.80;10.00;;;5.30;99.90;;;;;;5011970;28;20168;-67
2022/01/14 07:28:16;;;;;;;18.80;9.03;;;5.40;99.90;;;;;;5011944;28;20653;-69
2022/01/14 07:30:42;;;;;;;16.37;9.63;;;5.40;99.90;;;;;;5011688;28;20179;-68
2022/01/14 07:33:07;;;;;;;23.43;10.77;;;5.40;99.90;;;;;;5011829;28;20164;-68
2022/01/14 07:35:32;;;;;;;16.67;9.97;;;5.40;99.90;;;;;;5011381;28;20188;-67
2022/01/14 07:37:58;;;;;;;17.43;10.13;;;5.50;99.90;;;;;;5011594;28;20262;-68
2022/01/14 07:40:24;;;;;;;21.90;8.63;;;5.40;99.90;;;;;;5011394;28;20232;-68
2022/01/14 07:42:49;;;;;;;21.63;11.47;;;5.40;99.90;;;;;;5011247;28;20172;-67
2022/01/14 07:45:14;;;;;;;14.50;7.80;;;5.40;99.90;;;;;;5011516;28;20191;-67
2022/01/14 07:47:40;;;;;;;14.37;7.57;;;5.40;99.90;;;;;;5011908;28;20168;-68
2022/01/14 07:50:06;;;;;;;19.87;7.90;;;5.40;99.90;;;;;;5011763;28;20164;-68
2022/01/14 07:52:32;;;;;;;20.80;7.60;;;5.50;99.90;;;;;;5011379;28;20329;-68
2022/01/14 07:54:57;;;;;;;19.57;9.33;;;5.40;99.90;;;;;;5011690;28;20431;-67
2022/01/14 07:57:23;;;;;;;12.80;11.20;;;5.40;99.90;;;;;;5011806;28;20539;-67
2022/01/14 07:59:49;;;;;;;15.50;8.17;;;5.50;99.90;;;;;;5011637;28;20248;-68
2022/01/14 08:02:15;;;;;;;13.33;7.50;;;5.50;99.90;;;;;;5011568;28;20651;-67
2022/01/14 08:04:41;;;;;;;20.20;8.73;;;5.40;99.90;;;;;;5011480;28;20455;-68
2022/01/14 08:07:11;;;;;;;16.27;6.40;;;5.50;99.90;;;;;;5011891;28;20453;-68
2022/01/14 08:09:43;;;;;;;16.80;9.17;;;5.40;99.90;;;;;;5012036;28;20415;-68
2022/01/14 08:12:10;;;;;;;17.17;9.00;;;5.40;99.90;;;;;;5011544;28;20414;-68
2022/01/14 08:14:36;;;;;;;14.90;6.43;;;5.40;99.90;;;;;;5011376;28;20423;-68
2022/01/14 08:17:02;;;;;;;13.40;7.43;;;5.40;99.90;;;;;;5025680;28;20432;-68
2022/01/14 08:19:32;;;;;;;20.90;9.80;;;5.50;99.90;;;;;;5011328;28;20494;-68
2022/01/14 08:21:58;;;;;;;18.03;9.67;;;5.50;99.90;;;;;;5018150;28;20646;-68
2022/01/14 08:24:24;;;;;;;14.23;8.17;;;5.50;99.90;;;;;;5030982;28;20481;-68
2022/01/14 08:26:49;;;;;;;19.73;9.30;;;5.50;99.90;;;;;;5030890;28;20407;-68
2022/01/14 08:29:15;;;;;;;11.47;8.90;;;5.50;99.90;;;;;;5031118;28;20178;-68
2022/01/14 08:31:40;;;;;;;12.27;6.67;;;5.50;99.90;;;;;;5030953;28;20246;-68
2022/01/14 08:34:06;;;;;;;12.33;6.80;;;5.50;99.90;;;;;;5030653;28;20610;-68
2022/01/14 08:36:31;;;;;;;16.10;8.77;;;5.50;99.90;;;;;;5030643;28;20180;-68
2022/01/14 08:38:57;;;;;;;9.30;6.30;;;5.50;99.90;;;;;;5013186;28;20630;-68
2022/01/14 08:41:28;;;;;;;17.03;9.60;;;5.50;99.90;;;;;;5030681;28;20254;-68
2022/01/14 08:43:54;;;;;;;13.57;7.73;;;5.40;99.90;;;;;;5030824;28;20643;-68
2022/01/14 08:46:19;;;;;;;12.07;7.87;;;5.40;99.90;;;;;;5030989;28;20410;-67
2022/01/14 08:48:45;;;;;;;12.20;6.93;;;5.50;99.90;;;;;;5030932;28;20255;-68
2022/01/14 08:51:10;;;;;;;15.77;8.67;;;5.40;99.90;;;;;;5030990;28;20225;-67
2022/01/14 08:53:36;;;;;;;13.87;9.53;;;5.40;99.90;;;;;;5033152;28;20579;-68
2022/01/14 08:56:01;;;;;;;15.23;8.83;;;5.40;99.90;;;;;;5034703;28;20207;-68
2022/01/14 08:58:27;;;;;;;12.13;7.87;;;5.40;99.90;;;;;;5034576;28;20172;-68
2022/01/14 09:00:52;;;;;;;9.47;6.53;;;5.50;99.90;;;;;;5034675;28;20245;-68
2022/01/14 09:03:18;;;;;;;14.93;8.10;;;5.50;99.90;;;;;;5034131;28;20768;-69
2022/01/14 09:05:43;;;;;;;10.90;5.93;;;5.50;99.90;;;;;;5034198;28;20211;-68
2022/01/14 09:08:09;;;;;;;13.87;7.30;;;5.50;99.90;;;;;;5034260;28;20175;-68
2022/01/14 09:10:34;;;;;;;7.40;5.47;;;5.50;99.90;;;;;;5034169;28;20548;-68
2022/01/14 09:13:00;;;;;;;9.30;6.63;;;5.50;99.90;;;;;;5033977;28;20582;-68
2022/01/14 09:15:25;;;;;;;12.37;6.97;;;5.50;99.90;;;;;;5034118;28;20200;-68
2022/01/14 09:17:51;;;;;;;13.57;8.20;;;5.50;99.90;;;;;;5034349;28;20171;-68
2022/01/14 09:20:16;;;;;;;16.00;7.83;;;5.50;99.90;;;;;;5034410;28;20204;-67
2022/01/14 09:22:48;;;;;;;20.03;7.17;;;5.50;99.90;;;;;;5033947;28;20176;-68
2022/01/14 09:25:17;;;;;;;17.77;9.33;;;5.50;99.90;;;;;;5033859;28;20203;-66
2022/01/14 09:27:42;;;;;;;12.93;7.63;;;5.50;99.90;;;;;;5034023;28;20418;-67
2022/01/14 09:30:08;;;;;;;19.47;9.67;;;5.50;99.90;;;;;;5032551;28;20406;-68
2022/01/14 09:32:34;;;;;;;12.47;7.83;;;5.50;99.90;;;;;;5035109;28;20180;-68
2022/01/14 09:35:04;;;;;;;9.40;5.23;;;5.50;99.90;;;;;;5028261;28;20454;-68
2022/01/14 09:37:30;;;;;;;17.00;9.20;;;5.60;99.90;;;;;;5028296;28;20595;-67
2022/01/14 09:39:56;;;;;;;10.63;7.30;;;5.70;99.90;;;;;;5024554;28;20482;-68
2022/01/14 09:42:21;;;;;;;11.27;6.20;;;5.70;99.90;;;;;;5033363;28;20167;-68
2022/01/14 09:44:47;;;;;;;13.20;5.30;;;5.70;99.90;;;;;;5021805;28;20198;-67
2022/01/14 09:47:17;;;;;;;13.43;7.53;;;5.70;99.90;;;;;;5016445;28;20159;-68
2022/01/14 09:49:44;;;;;;;12.87;7.03;;;5.80;99.90;;;;;;5033423;28;20171;-67
2022/01/14 09:52:11;;;;;;;8.03;5.33;;;5.70;99.90;;;;;;5029728;28;20426;-70
2022/01/14 09:54:37;;;;;;;10.50;6.60;;;5.70;99.90;;;;;;5032648;28;20485;-68
2022/01/14 09:57:03;;;;;;;10.80;6.10;;;5.70;99.90;;;;;;5029803;28;20453;-68
2022/01/14 09:59:28;;;;;;;8.57;5.80;;;5.70;99.90;;;;;;5031481;28;20201;-69
2022/01/14 10:01:54;;;;;;;12.53;5.93;;;5.70;99.90;;;;;;5025892;28;20195;-68
2022/01/14 10:04:22;;;;;;;9.23;8.27;;;5.70;99.90;;;;;;5019233;28;20306;-69
2022/01/14 10:06:51;;;;;;;13.83;7.80;;;5.70;99.90;;;;;;5031818;28;20443;-68
2022/01/14 10:09:38;;;;;;;14.00;6.67;;;5.70;99.90;;;;;;5030046;28;20525;-69
2022/01/14 10:12:05;;;;;;;10.67;8.10;;;5.70;99.90;;;;;;5029985;28;20482;-68
2022/01/14 10:14:33;;;;;;;10.23;5.37;;;5.80;99.90;;;;;;5022343;28;20465;-69
2022/01/14 10:17:00;;;;;;;14.43;6.90;;;5.80;99.90;;;;;;5030683;28;20441;-69
2022/01/14 10:19:28;;;;;;;15.93;8.20;;;5.90;99.90;;;;;;5028828;28;20525;-68
2022/01/14 10:21:55;;;;;;;10.40;6.80;;;6.00;99.90;;;;;;5032772;28;21003;-68
2022/01/14 10:24:25;;;;;;;10.23;6.03;;;6.00;99.90;;;;;;5032729;28;20449;-68
2022/01/14 10:26:53;;;;;;;7.73;5.50;;;6.00;99.90;;;;;;5055017;23;20843;-74
2022/01/14 10:29:34;;;;;;;8.97;5.50;;;6.00;99.90;;;;;;5023219;28;20493;-74
2022/01/14 10:32:01;;;;;;;9.10;4.80;;;6.10;99.90;;;;;;5033026;28;20904;-74
2022/01/14 10:34:27;;;;;;;10.37;4.70;;;6.00;99.90;;;;;;5015540;28;20522;-76
2022/01/14 10:37:15;;;;;;;8.53;5.43;;;6.00;99.90;;;;;;5032425;28;20520;-75
2022/01/14 10:39:47;;;;;;;4.73;3.83;;;6.00;99.90;;;;;;5033292;28;20406;-74
2022/01/14 10:42:25;;;;;;;9.80;4.07;;;6.00;99.90;;;;;;5033247;28;20406;-74
2022/01/14 10:44:50;;;;;;;8.80;4.70;;;6.10;99.90;;;;;;5033252;28;20421;-75
2022/01/14 10:47:22;;;;;;;8.50;5.70;;;6.20;99.90;;;;;;5033009;28;20426;-75
2022/01/14 10:49:50;;;;;;;13.10;3.90;;;6.30;99.90;;;;;;5033496;28;20221;-75
2022/01/14 10:52:26;;;;;;;5.30;3.70;;;6.10;99.90;;;;;;5033172;28;20498;-75
2022/01/14 10:54:57;;;;;;;8.30;4.10;;;6.20;99.90;;;;;;5032728;28;20402;-75
2022/01/14 10:57:28;;;;;;;10.57;3.70;;;6.30;99.90;;;;;;5036961;28;20515;-77
2022/01/14 10:59:56;;;;;;;8.77;4.47;;;6.30;99.90;;;;;;5029428;28;20459;-75
2022/01/14 11:02:48;;;;;;;4.43;4.00;;;6.40;99.90;;;;;;5034513;28;20438;-79
2022/01/14 11:05:15;;;;;;;9.23;4.40;;;6.40;99.90;;;;;;5033374;28;20439;-75
2022/01/14 11:07:42;;;;;;;7.97;4.80;;;6.30;99.90;;;;;;5015989;28;20417;-74
2022/01/14 11:10:16;;;;;;;6.10;3.60;;;6.40;99.90;;;;;;5033300;28;20399;-75
2022/01/14 11:12:42;;;;;;;4.03;3.30;;;6.40;99.90;;;;;;5033231;28;20443;-73
2022/01/14 11:15:08;;;;;;;6.30;4.23;;;6.40;99.90;;;;;;5033235;28;20900;-74
2022/01/14 11:17:39;;;;;;;7.30;4.50;;;6.40;99.90;;;;;;5030060;28;20407;-75
2022/01/14 11:20:07;;;;;;;3.57;3.00;;;6.50;99.90;;;;;;5029334;28;20442;-74
2022/01/14 11:25:18;;;;;;;4.20;2.97;;;6.50;99.90;;;;;;5032450;28;20501;-77
2022/01/14 11:27:51;;;;;;;5.83;4.43;;;6.50;99.90;;;;;;5032332;28;20428;-73
2022/01/14 11:30:17;;;;;;;3.60;3.27;;;6.50;99.90;;;;;;4995457;28;20835;-75
2022/01/14 11:32:52;;;;;;;5.00;2.37;;;6.50;99.90;;;;;;5012626;28;20422;-75
2022/01/14 11:35:23;;;;;;;4.93;3.70;;;6.50;99.90;;;;;;5014069;28;20441;-75
2022/01/14 11:37:49;;;;;;;8.80;3.17;;;6.50;99.90;;;;;;5024773;28;20420;-74
2022/01/14 11:40:15;;;;;;;5.67;3.30;;;6.50;99.90;;;;;;5009476;28;20472;-75
2022/01/14 11:42:59;;;;;;;5.07;3.17;;;6.50;99.90;;;;;;5026899;28;20434;-75
2022/01/14 11:45:46;;;;;;;3.67;3.37;;;6.60;99.90;;;;;;5021916;28;20449;-75
2022/01/14 11:48:37;;;;;;;6.13;3.60;;;6.60;99.90;;;;;;5026184;28;20419;-76
2022/01/14 11:51:11;;;;;;;4.03;3.10;;;6.60;99.90;;;;;;5024535;28;20437;-75
2022/01/14 11:53:43;;;;;;;3.87;2.37;;;6.70;99.90;;;;;;5031456;28;20416;-75
2022/01/14 11:56:31;;;;;;;5.07;3.47;;;6.70;99.90;;;;;;5030566;28;20425;-75
2022/01/14 11:59:22;;;;;;;3.10;2.13;;;6.70;99.90;;;;;;5020532;28;20451;-74
2022/01/14 12:01:49;;;;;;;5.67;3.60;;;6.60;99.90;;;;;;5039701;28;20445;-74
2022/01/14 12:04:15;;;;;;;2.97;2.67;;;6.60;99.90;;;;;;5018379;28;20925;-74
2022/01/14 12:06:57;;;;;;;5.50;3.70;;;6.60;99.90;;;;;;5008855;28;20446;-75
2022/01/14 12:09:24;;;;;;;7.07;5.03;;;6.60;99.90;;;;;;5032087;28;20540;-73
2022/01/14 12:12:22;;;;;;;3.70;3.27;;;6.60;99.90;;;;;;5032519;28;20413;-74
2022/01/14 12:14:57;;;;;;;3.73;3.13;;;6.70;99.90;;;;;;5035567;28;20422;-74
2022/01/14 12:17:40;;;;;;;5.30;2.57;;;6.70;99.90;;;;;;5043990;28;20438;-74
2022/01/14 12:20:14;;;;;;;4.50;3.30;;;6.60;99.90;;;;;;5032324;28;20499;-73
2022/01/14 12:22:40;;;;;;;4.93;4.40;;;6.50;99.90;;;;;;5020663;28;20450;-74
2022/01/14 12:25:08;;;;;;;3.87;2.93;;;6.50;99.90;;;;;;5022801;28;20797;-74
2022/01/14 12:27:44;;;;;;;10.80;2.40;;;6.60;99.90;;;;;;5033857;28;20445;-74
2022/01/14 12:30:18;;;;;;;2.37;2.17;;;6.60;99.90;;;;;;5035687;28;20418;-74
2022/01/14 12:32:47;;;;;;;4.30;2.40;;;6.60;99.90;;;;;;5035367;28;20472;-74
2022/01/14 12:35:15;;;;;;;2.33;2.10;;;6.70;99.90;;;;;;5034595;28;20479;-74
2022/01/14 12:37:49;;;;;;;2.70;2.50;;;6.70;99.90;;;;;;5035132;28;20414;-75
2022/01/14 12:40:41;;;;;;;2.53;2.33;;;6.70;99.90;;;;;;5035576;28;20523;-73
2022/01/14 12:43:12;;;;;;;5.10;2.40;;;6.60;99.90;;;;;;5015734;28;20496;-74
2022/01/14 12:46:13;;;;;;;5.03;3.20;;;6.70;99.90;;;;;;5034724;28;20417;-74
2022/01/14 12:48:50;;;;;;;2.60;2.40;;;6.60;99.90;;;;;;5015953;28;20927;-74
2022/01/14 12:51:20;;;;;;;3.60;2.87;;;6.70;99.90;;;;;;5021817;28;20439;-75
2022/01/14 12:53:55;;;;;;;3.23;3.00;;;6.70;99.90;;;;;;5024386;28;20418;-74
2022/01/14 12:56:24;;;;;;;4.00;2.87;;;6.70;99.90;;;;;;5034975;28;20952;-74
2022/01/14 12:58:55;;;;;;;4.60;2.67;;;6.60;99.90;;;;;;5022271;28;20475;-73
2022/01/14 13:01:29;;;;;;;4.50;2.07;;;6.60;99.90;;;;;;5035269;28;20464;-75
2022/01/14 13:04:00;;;;;;;4.77;2.73;;;6.60;99.90;;;;;;5034714;28;20415;-73
2022/01/14 13:06:26;;;;;;;2.90;2.50;;;6.60;99.90;;;;;;5035231;28;20517;-76
2022/01/14 13:08:56;;;;;;;4.53;3.63;;;6.60;99.90;;;;;;5034712;28;20468;-74
2022/01/14 13:11:22;;;;;;;2.50;2.30;;;6.70;99.90;;;;;;5015489;28;20438;-74
2022/01/14 13:14:04;;;;;;;5.20;2.87;;;6.80;99.90;;;;;;5015084;28;20419;-74